sensor_id;sensor_type;location;lat;lon;timestamp;pressure;altitude;pressure_sealevel;temperature;humidity
65280;BME280;51878;55.748;48.742;2023-05-02T00:03:16;98844.28;;;12.08;100.00
65280;BME280;51878;55.748;48.742;2023-05-02T00:08:18;98904.22;;;12.40;100.00
65280;BME280;51878;55.748;48.742;2023-05-02T00:13:20;98839.06;;;12.00;100.00
65280;BME280;51878;55.748;48.742;2023-05-02T00:18:22;98731.94;;;11.29;100.00
65280;BME280;51878;55.748;48.742;2023-05-02T00:23:25;98925.78;;;12.42;100.00
65280;BME280;51878;55.748;48.742;2023-05-02T00:28:30;98853.66;;;11.72;100.00
65280;BME280;51878;55.748;48.742;2023-05-02T00:33:32;98893.38;;;11.80;100.00
65280;BME280;51878;55.748;48.742;2023-05-02T00:38:34;98930.19;;;11.96;100.00
65280;BME280;51878;55.748;48.742;2023-05-02T00:43:37;98886.88;;;11.68;100.00
65280;BME280;51878;55.748;48.742;2023-05-02T00:48:42;98906.72;;;11.82;100.00
65280;BME280;51878;55.748;48.742;2023-05-02T00:53:46;98869.94;;;11.46;100.00
65280;BME280;51878;55.748;48.742;2023-05-02T00:58:48;98875.78;;;11.43;100.00
65280;BME280;51878;55.748;48.742;2023-05-02T01:14:55;98918.13;;;11.30;100.00
65280;BME280;51878;55.748;48.742;2023-05-02T01:20:11;99000.91;;;11.54;100.00
65280;BME280;51878;55.748;48.742;2023-05-02T01:30:20;98917.59;;;10.93;100.00
65280;BME280;51878;55.748;48.742;2023-05-02T01:35:24;98982.03;;;11.33;100.00
65280;BME280;51878;55.748;48.742;2023-05-02T01:40:28;98961.31;;;11.19;100.00
65280;BME280;51878;55.748;48.742;2023-05-02T01:45:33;98917.38;;;10.88;100.00
65280;BME280;51878;55.748;48.742;2023-05-02T01:50:38;99011.66;;;11.28;100.00
65280;BME280;51878;55.748;48.742;2023-05-02T01:55:44;98950.97;;;10.87;100.00
65280;BME280;51878;55.748;48.742;2023-05-02T02:00:48;98815.13;;;9.99;100.00
65280;BME280;51878;55.748;48.742;2023-05-02T02:05:53;98991.34;;;11.17;100.00
65280;BME280;51878;55.748;48.742;2023-05-02T02:11:03;99021.56;;;11.49;100.00
65280;BME280;51878;55.748;48.742;2023-05-02T02:16:11;98930.59;;;11.05;100.00
65280;BME280;51878;55.748;48.742;2023-05-02T02:21:17;98903.03;;;11.01;100.00
65280;BME280;51878;55.748;48.742;2023-05-02T02:26:20;99005.94;;;11.57;100.00
65280;BME280;51878;55.748;48.742;2023-05-02T02:31:23;99008.63;;;11.51;100.00
65280;BME280;51878;55.748;48.742;2023-05-02T02:36:52;99064.81;;;11.57;100.00
65280;BME280;51878;55.748;48.742;2023-05-02T02:42:15;99097.16;;;11.52;100.00
65280;BME280;51878;55.748;48.742;2023-05-02T02:47:35;99084.25;;;11.19;100.00
65280;BME280;51878;55.748;48.742;2023-05-02T02:52:57;98892.53;;;9.87;100.00
65280;BME280;51878;55.748;48.742;2023-05-02T02:58:55;99054.75;;;10.74;100.00
65280;BME280;51878;55.748;48.742;2023-05-02T03:03:38;99095.06;;;10.84;100.00
65280;BME280;51878;55.748;48.742;2023-05-02T03:08:42;99129.06;;;11.08;100.00
65280;BME280;51878;55.748;48.742;2023-05-02T03:13:45;99130.47;;;11.04;100.00
65280;BME280;51878;55.748;48.742;2023-05-02T03:18:48;99009.91;;;10.22;100.00
65280;BME280;51878;55.748;48.742;2023-05-02T03:23:53;99132.38;;;11.04;100.00
65280;BME280;51878;55.748;48.742;2023-05-02T03:29:07;99126.50;;;11.00;100.00
65280;BME280;51878;55.748;48.742;2023-05-02T03:34:14;99109.09;;;11.16;100.00
65280;BME280;51878;55.748;48.742;2023-05-02T03:39:25;99032.31;;;10.87;100.00
65280;BME280;51878;55.748;48.742;2023-05-02T03:44:27;99153.28;;;11.79;100.00
65280;BME280;51878;55.748;48.742;2023-05-02T03:49:30;99070.16;;;11.37;100.00
65280;BME280;51878;55.748;48.742;2023-05-02T03:54:35;99099.81;;;11.80;100.00
65280;BME280;51878;55.748;48.742;2023-05-02T03:59:38;99103.03;;;12.04;100.00
65280;BME280;51878;55.748;48.742;2023-05-02T04:04:42;99068.34;;;12.12;100.00
65280;BME280;51878;55.748;48.742;2023-05-02T04:09:44;99059.38;;;12.12;100.00
65280;BME280;51878;55.748;48.742;2023-05-02T04:14:56;99063.13;;;12.11;100.00
65280;BME280;51878;55.748;48.742;2023-05-02T04:19:58;99052.47;;;12.03;100.00
65280;BME280;51878;55.748;48.742;2023-05-02T04:25:07;99111.66;;;12.34;100.00
65280;BME280;51878;55.748;48.742;2023-05-02T04:30:09;99090.34;;;12.31;100.00
65280;BME280;51878;55.748;48.742;2023-05-02T04:35:12;99089.31;;;12.38;100.00
65280;BME280;51878;55.748;48.742;2023-05-02T04:40:16;99091.00;;;12.53;100.00
65280;BME280;51878;55.748;48.742;2023-05-02T04:45:18;99032.84;;;12.34;100.00
65280;BME280;51878;55.748;48.742;2023-05-02T04:50:20;98916.34;;;11.71;100.00
65280;BME280;51878;55.748;48.742;2023-05-02T04:55:24;99105.63;;;12.98;100.00
65280;BME280;51878;55.748;48.742;2023-05-02T05:00:29;99067.97;;;12.89;100.00
65280;BME280;51878;55.748;48.742;2023-05-02T05:05:35;99115.25;;;13.14;100.00
65280;BME280;51878;55.748;48.742;2023-05-02T05:10:40;99090.75;;;13.21;100.00
65280;BME280;51878;55.748;48.742;2023-05-02T05:15:43;99095.97;;;13.22;100.00
65280;BME280;51878;55.748;48.742;2023-05-02T05:20:45;99139.72;;;13.48;100.00
65280;BME280;51878;55.748;48.742;2023-05-02T05:25:47;99124.66;;;13.38;100.00
65280;BME280;51878;55.748;48.742;2023-05-02T05:30:49;99172.16;;;13.69;100.00
65280;BME280;51878;55.748;48.742;2023-05-02T05:35:53;99162.75;;;13.65;100.00
65280;BME280;51878;55.748;48.742;2023-05-02T05:40:55;99136.75;;;13.56;100.00
65280;BME280;51878;55.748;48.742;2023-05-02T05:46:00;99142.63;;;13.59;100.00
65280;BME280;51878;55.748;48.742;2023-05-02T05:51:05;99153.53;;;13.53;100.00
65280;BME280;51878;55.748;48.742;2023-05-02T05:56:08;99132.63;;;13.00;100.00
65280;BME280;51878;55.748;48.742;2023-05-02T06:01:11;99230.59;;;12.87;100.00
65280;BME280;51878;55.748;48.742;2023-05-02T06:06:13;99169.16;;;12.24;100.00
65280;BME280;51878;55.748;48.742;2023-05-02T06:11:15;99278.59;;;12.39;100.00
65280;BME280;51878;55.748;48.742;2023-05-02T06:16:18;99178.34;;;11.40;100.00
65280;BME280;51878;55.748;48.742;2023-05-02T06:21:21;99209.03;;;11.41;100.00
65280;BME280;51878;55.748;48.742;2023-05-02T06:26:24;99216.91;;;11.64;100.00
65280;BME280;51878;55.748;48.742;2023-05-02T06:31:26;99268.41;;;12.07;100.00
65280;BME280;51878;55.748;48.742;2023-05-02T06:36:28;99253.84;;;12.28;100.00
65280;BME280;51878;55.748;48.742;2023-05-02T06:41:30;99255.47;;;12.64;100.00
65280;BME280;51878;55.748;48.742;2023-05-02T06:46:32;99201.91;;;12.71;100.00
65280;BME280;51878;55.748;48.742;2023-05-02T06:51:35;99231.28;;;13.35;100.00
65280;BME280;51878;55.748;48.742;2023-05-02T06:56:37;99272.88;;;14.09;100.00
65280;BME280;51878;55.748;48.742;2023-05-02T07:01:43;99284.91;;;14.60;100.00
65280;BME280;51878;55.748;48.742;2023-05-02T07:06:45;99302.22;;;14.79;100.00
65280;BME280;51878;55.748;48.742;2023-05-02T07:11:48;99300.91;;;14.36;100.00
65280;BME280;51878;55.748;48.742;2023-05-02T07:16:50;99181.78;;;13.78;100.00
65280;BME280;51878;55.748;48.742;2023-05-02T07:21:54;99214.63;;;14.55;100.00
65280;BME280;51878;55.748;48.742;2023-05-02T07:26:57;99315.91;;;15.42;100.00
65280;BME280;51878;55.748;48.742;2023-05-02T07:31:59;99271.34;;;15.42;100.00
65280;BME280;51878;55.748;48.742;2023-05-02T07:37:01;99246.78;;;15.10;98.42
65280;BME280;51878;55.748;48.742;2023-05-02T07:42:03;99313.00;;;15.37;97.33
65280;BME280;51878;55.748;48.742;2023-05-02T07:47:05;99289.75;;;14.96;96.64
65280;BME280;51878;55.748;48.742;2023-05-02T07:52:07;99260.16;;;14.55;96.77
65280;BME280;51878;55.748;48.742;2023-05-02T07:57:11;99359.47;;;14.92;97.44
65280;BME280;51878;55.748;48.742;2023-05-02T08:02:13;99303.53;;;13.78;96.99
65280;BME280;51878;55.748;48.742;2023-05-02T08:07:18;99351.34;;;13.80;100.00
65280;BME280;51878;55.748;48.742;2023-05-02T08:12:20;99345.47;;;13.83;100.00
65280;BME280;51878;55.748;48.742;2023-05-02T08:17:22;99315.31;;;13.72;100.00
65280;BME280;51878;55.748;48.742;2023-05-02T08:22:25;99356.56;;;13.95;100.00
65280;BME280;51878;55.748;48.742;2023-05-02T08:27:27;99315.72;;;13.55;100.00
65280;BME280;51878;55.748;48.742;2023-05-02T08:32:31;99319.88;;;13.44;100.00
65280;BME280;51878;55.748;48.742;2023-05-02T08:37:33;99368.94;;;13.71;100.00
65280;BME280;51878;55.748;48.742;2023-05-02T08:42:36;99358.25;;;13.70;100.00
65280;BME280;51878;55.748;48.742;2023-05-02T08:47:42;99332.03;;;13.49;100.00
65280;BME280;51878;55.748;48.742;2023-05-02T08:52:44;99287.91;;;12.78;100.00
65280;BME280;51878;55.748;48.742;2023-05-02T08:57:48;99393.84;;;13.35;100.00
65280;BME280;51878;55.748;48.742;2023-05-02T09:03:22;99413.34;;;13.38;100.00
65280;BME280;51878;55.748;48.742;2023-05-02T09:08:29;99385.59;;;13.21;100.00
65280;BME280;51878;55.748;48.742;2023-05-02T09:18:43;99393.56;;;13.16;100.00
65280;BME280;51878;55.748;48.742;2023-05-02T09:23:48;99386.41;;;13.09;100.00
65280;BME280;51878;55.748;48.742;2023-05-02T09:28:53;99317.28;;;12.42;100.00
65280;BME280;51878;55.748;48.742;2023-05-02T09:33:55;99362.72;;;12.54;100.00
65280;BME280;51878;55.748;48.742;2023-05-02T09:39:08;99406.81;;;12.85;100.00
65280;BME280;51878;55.748;48.742;2023-05-02T09:44:19;99400.72;;;12.76;100.00
65280;BME280;51878;55.748;48.742;2023-05-02T09:49:56;99394.84;;;12.72;100.00
65280;BME280;51878;55.748;48.742;2023-05-02T09:54:59;99332.66;;;12.21;100.00
65280;BME280;51878;55.748;48.742;2023-05-02T10:00:01;99366.16;;;12.28;100.00
65280;BME280;51878;55.748;48.742;2023-05-02T10:05:06;99389.91;;;12.13;100.00
65280;BME280;51878;55.748;48.742;2023-05-02T10:10:13;99461.34;;;12.07;100.00
65280;BME280;51878;55.748;48.742;2023-05-02T10:15:20;99420.66;;;11.12;100.00
65280;BME280;51878;55.748;48.742;2023-05-02T10:20:30;99431.75;;;10.81;100.00
65280;BME280;51878;55.748;48.742;2023-05-02T10:25:35;99431.50;;;10.76;100.00
65280;BME280;51878;55.748;48.742;2023-05-02T10:30:38;99437.09;;;10.74;100.00
65280;BME280;51878;55.748;48.742;2023-05-02T10:35:44;99508.59;;;11.33;100.00
65280;BME280;51878;55.748;48.742;2023-05-02T10:40:54;99389.03;;;10.68;100.00
65280;BME280;51878;55.748;48.742;2023-05-02T10:45:58;99441.38;;;11.13;100.00
65280;BME280;51878;55.748;48.742;2023-05-02T10:51:04;99401.69;;;11.12;100.00
65280;BME280;51878;55.748;48.742;2023-05-02T10:56:18;99443.78;;;11.66;100.00
65280;BME280;51878;55.748;48.742;2023-05-02T11:11:57;99308.13;;;11.30;100.00
65280;BME280;51878;55.748;48.742;2023-05-02T11:38:08;99330.03;;;11.78;100.00
65280;BME280;51878;55.748;48.742;2023-05-02T11:43:16;99398.69;;;12.15;100.00
65280;BME280;51878;55.748;48.742;2023-05-02T11:48:20;99371.47;;;11.87;100.00
65280;BME280;51878;55.748;48.742;2023-05-02T11:53:26;99416.16;;;12.06;100.00
65280;BME280;51878;55.748;48.742;2023-05-02T11:58:31;99367.94;;;11.86;100.00
65280;BME280;51878;55.748;48.742;2023-05-02T12:03:34;99407.41;;;12.10;100.00
65280;BME280;51878;55.748;48.742;2023-05-02T12:08:38;99352.41;;;11.80;100.00
65280;BME280;51878;55.748;48.742;2023-05-02T12:13:45;99301.19;;;11.49;100.00
65280;BME280;51878;55.748;48.742;2023-05-02T12:18:49;99309.91;;;11.44;100.00
65280;BME280;51878;55.748;48.742;2023-05-02T12:23:52;99334.66;;;11.56;100.00
65280;BME280;51878;55.748;48.742;2023-05-02T12:28:54;99381.69;;;11.85;100.00
65280;BME280;51878;55.748;48.742;2023-05-02T12:33:58;99426.97;;;11.99;100.00
65280;BME280;51878;55.748;48.742;2023-05-02T12:39:05;99246.19;;;10.90;100.00
65280;BME280;51878;55.748;48.742;2023-05-02T12:44:08;99363.06;;;11.53;100.00
65280;BME280;51878;55.748;48.742;2023-05-02T12:49:10;99382.19;;;11.67;100.00
65280;BME280;51878;55.748;48.742;2023-05-02T12:54:20;99428.88;;;11.98;100.00
65280;BME280;51878;55.748;48.742;2023-05-02T12:59:27;99372.41;;;11.72;100.00
65280;BME280;51878;55.748;48.742;2023-05-02T13:04:39;99359.75;;;11.58;100.00
65280;BME280;51878;55.748;48.742;2023-05-02T13:09:46;99375.97;;;11.73;100.00
65280;BME280;51878;55.748;48.742;2023-05-02T13:14:49;99383.78;;;11.83;100.00
65280;BME280;51878;55.748;48.742;2023-05-02T13:19:51;99442.06;;;12.30;100.00
65280;BME280;51878;55.748;48.742;2023-05-02T13:25:05;99370.72;;;11.93;100.00
65280;BME280;51878;55.748;48.742;2023-05-02T13:30:09;99437.03;;;12.27;100.00
65280;BME280;51878;55.748;48.742;2023-05-02T13:35:12;99360.50;;;11.73;100.00
65280;BME280;51878;55.748;48.742;2023-05-02T13:40:17;99458.22;;;12.38;100.00
65280;BME280;51878;55.748;48.742;2023-05-02T13:45:21;99297.78;;;11.40;100.00
65280;BME280;51878;55.748;48.742;2023-05-02T13:50:23;99381.59;;;11.93;100.00
65280;BME280;51878;55.748;48.742;2023-05-02T13:55:26;99398.91;;;11.92;100.00
65280;BME280;51878;55.748;48.742;2023-05-02T14:00:28;99288.88;;;11.25;100.00
65280;BME280;51878;55.748;48.742;2023-05-02T14:05:30;99348.81;;;11.73;100.00
65280;BME280;51878;55.748;48.742;2023-05-02T14:10:33;99455.66;;;12.30;100.00
65280;BME280;51878;55.748;48.742;2023-05-02T14:15:37;99441.38;;;12.21;100.00
65280;BME280;51878;55.748;48.742;2023-05-02T14:20:40;99440.78;;;12.26;100.00
65280;BME280;51878;55.748;48.742;2023-05-02T14:25:42;99340.53;;;11.59;100.00
65280;BME280;51878;55.748;48.742;2023-05-02T14:30:47;99352.38;;;11.52;100.00
65280;BME280;51878;55.748;48.742;2023-05-02T14:35:50;99448.59;;;12.07;100.00
65280;BME280;51878;55.748;48.742;2023-05-02T14:40:53;99454.44;;;12.04;100.00
65280;BME280;51878;55.748;48.742;2023-05-02T14:45:56;99368.16;;;11.63;100.00
65280;BME280;51878;55.748;48.742;2023-05-02T14:51:02;99248.59;;;10.79;100.00
65280;BME280;51878;55.748;48.742;2023-05-02T14:56:11;99411.91;;;11.75;100.00
65280;BME280;51878;55.748;48.742;2023-05-02T15:01:18;99440.28;;;11.72;100.00
65280;BME280;51878;55.748;48.742;2023-05-02T15:06:21;99339.25;;;11.12;100.00
65280;BME280;51878;55.748;48.742;2023-05-02T15:11:24;99435.03;;;11.64;100.00
65280;BME280;51878;55.748;48.742;2023-05-02T15:16:27;99458.66;;;11.70;100.00
65280;BME280;51878;55.748;48.742;2023-05-02T15:21:30;99448.06;;;11.54;100.00
65280;BME280;51878;55.748;48.742;2023-05-02T15:26:33;99254.00;;;10.42;100.00
65280;BME280;51878;55.748;48.742;2023-05-02T15:31:36;99433.88;;;11.37;100.00
65280;BME280;51878;55.748;48.742;2023-05-02T15:36:38;99484.00;;;11.56;100.00
65280;BME280;51878;55.748;48.742;2023-05-02T15:41:41;99445.00;;;11.21;100.00
65280;BME280;51878;55.748;48.742;2023-05-02T15:46:44;99417.47;;;11.09;100.00
65280;BME280;51878;55.748;48.742;2023-05-02T15:51:48;99504.09;;;11.62;100.00
65280;BME280;51878;55.748;48.742;2023-05-02T15:56:50;99492.09;;;11.49;100.00
65280;BME280;51878;55.748;48.742;2023-05-02T16:01:55;99484.59;;;11.51;100.00
65280;BME280;51878;55.748;48.742;2023-05-02T16:06:58;99460.00;;;11.38;100.00
65280;BME280;51878;55.748;48.742;2023-05-02T16:12:01;99422.03;;;11.23;100.00
65280;BME280;51878;55.748;48.742;2023-05-02T16:17:03;99481.47;;;11.54;100.00
65280;BME280;51878;55.748;48.742;2023-05-02T16:22:06;99466.59;;;11.50;100.00
65280;BME280;51878;55.748;48.742;2023-05-02T16:27:08;99425.69;;;11.15;100.00
65280;BME280;51878;55.748;48.742;2023-05-02T16:32:11;99475.06;;;11.41;100.00
65280;BME280;51878;55.748;48.742;2023-05-02T16:37:14;99492.09;;;11.49;100.00
65280;BME280;51878;55.748;48.742;2023-05-02T16:42:16;99427.91;;;11.05;100.00
65280;BME280;51878;55.748;48.742;2023-05-02T16:47:19;99453.22;;;11.12;100.00
65280;BME280;51878;55.748;48.742;2023-05-02T16:52:26;99445.47;;;11.09;100.00
65280;BME280;51878;55.748;48.742;2023-05-02T16:57:29;99514.47;;;11.36;100.00
65280;BME280;51878;55.748;48.742;2023-05-02T17:02:32;99533.75;;;11.42;100.00
65280;BME280;51878;55.748;48.742;2023-05-02T17:07:34;99526.19;;;11.37;100.00
65280;BME280;51878;55.748;48.742;2023-05-02T17:12:37;99521.88;;;11.43;100.00
65280;BME280;51878;55.748;48.742;2023-05-02T17:17:39;99509.72;;;11.38;100.00
65280;BME280;51878;55.748;48.742;2023-05-02T17:22:42;99428.66;;;10.99;100.00
65280;BME280;51878;55.748;48.742;2023-05-02T17:27:44;99462.09;;;11.21;100.00
65280;BME280;51878;55.748;48.742;2023-05-02T17:32:47;99453.56;;;11.24;100.00
65280;BME280;51878;55.748;48.742;2023-05-02T17:37:50;99428.16;;;11.10;100.00
65280;BME280;51878;55.748;48.742;2023-05-02T17:42:53;99407.63;;;10.86;100.00
65280;BME280;51878;55.748;48.742;2023-05-02T17:47:56;99392.56;;;10.84;100.00
65280;BME280;51878;55.748;48.742;2023-05-02T17:52:59;99409.97;;;10.74;100.00
65280;BME280;51878;55.748;48.742;2023-05-02T17:58:01;99402.97;;;10.50;100.00
65280;BME280;51878;55.748;48.742;2023-05-02T18:03:04;99464.56;;;10.71;100.00
65280;BME280;51878;55.748;48.742;2023-05-02T18:08:06;99434.94;;;10.55;100.00
65280;BME280;51878;55.748;48.742;2023-05-02T18:13:09;99505.75;;;10.90;100.00
65280;BME280;51878;55.748;48.742;2023-05-02T18:18:14;99504.69;;;10.91;100.00
65280;BME280;51878;55.748;48.742;2023-05-02T18:23:17;99472.06;;;10.99;100.00
65280;BME280;51878;55.748;48.742;2023-05-02T18:28:44;99493.19;;;11.04;100.00
65280;BME280;51878;55.748;48.742;2023-05-02T18:33:48;99491.22;;;10.98;100.00
65280;BME280;51878;55.748;48.742;2023-05-02T18:38:53;99476.47;;;10.85;100.00
65280;BME280;51878;55.748;48.742;2023-05-02T18:43:55;99475.50;;;10.93;100.00
65280;BME280;51878;55.748;48.742;2023-05-02T18:48:59;99483.69;;;10.78;100.00
65280;BME280;51878;55.748;48.742;2023-05-02T18:54:01;99509.50;;;10.74;100.00
65280;BME280;51878;55.748;48.742;2023-05-02T18:59:03;99548.00;;;10.84;100.00
65280;BME280;51878;55.748;48.742;2023-05-02T19:04:05;99494.81;;;10.83;100.00
65280;BME280;51878;55.748;48.742;2023-05-02T19:09:07;99388.97;;;10.47;100.00
65280;BME280;51878;55.748;48.742;2023-05-02T19:14:10;99310.41;;;10.68;100.00
65280;BME280;51878;55.748;48.742;2023-05-02T19:19:14;99316.16;;;10.29;100.00
65280;BME280;51878;55.748;48.742;2023-05-02T19:24:19;99411.38;;;10.55;100.00
65280;BME280;51878;55.748;48.742;2023-05-02T19:29:21;99359.13;;;10.17;100.00
65280;BME280;51878;55.748;48.742;2023-05-02T19:34:27;99367.19;;;10.25;100.00
65280;BME280;51878;55.748;48.742;2023-05-02T19:39:29;99472.16;;;10.61;100.00
65280;BME280;51878;55.748;48.742;2023-05-02T19:44:36;99448.41;;;10.48;100.00
65280;BME280;51878;55.748;48.742;2023-05-02T19:49:38;99405.38;;;10.16;100.00
65280;BME280;51878;55.748;48.742;2023-05-02T19:54:40;99390.41;;;9.90;100.00
65280;BME280;51878;55.748;48.742;2023-05-02T19:59:42;99484.97;;;10.52;100.00
65280;BME280;51878;55.748;48.742;2023-05-02T20:04:45;99424.41;;;10.45;100.00
65280;BME280;51878;55.748;48.742;2023-05-02T20:09:47;99428.78;;;10.76;100.00
65280;BME280;51878;55.748;48.742;2023-05-02T20:14:49;99333.44;;;9.83;100.00
65280;BME280;51878;55.748;48.742;2023-05-02T20:19:51;99530.13;;;10.75;100.00
65280;BME280;51878;55.748;48.742;2023-05-02T20:24:53;99512.47;;;10.79;100.00
65280;BME280;51878;55.748;48.742;2023-05-02T20:29:55;99428.59;;;10.48;100.00
65280;BME280;51878;55.748;48.742;2023-05-02T20:34:58;99405.91;;;10.34;100.00
65280;BME280;51878;55.748;48.742;2023-05-02T20:40:00;99461.59;;;10.66;100.00
65280;BME280;51878;55.748;48.742;2023-05-02T20:45:05;99386.31;;;10.24;100.00
65280;BME280;51878;55.748;48.742;2023-05-02T20:50:08;99429.81;;;10.60;100.00
65280;BME280;51878;55.748;48.742;2023-05-02T20:55:10;99397.75;;;10.64;100.00
65280;BME280;51878;55.748;48.742;2023-05-02T21:00:13;99347.47;;;10.31;100.00
65280;BME280;51878;55.748;48.742;2023-05-02T21:05:16;99364.66;;;10.24;100.00
65280;BME280;51878;55.748;48.742;2023-05-02T21:10:18;99335.13;;;9.99;100.00
65280;BME280;51878;55.748;48.742;2023-05-02T21:15:21;99425.41;;;10.44;100.00
65280;BME280;51878;55.748;48.742;2023-05-02T21:20:23;99425.13;;;10.39;100.00
65280;BME280;51878;55.748;48.742;2023-05-02T21:25:28;99428.13;;;10.44;100.00
65280;BME280;51878;55.748;48.742;2023-05-02T21:30:30;99394.94;;;10.27;100.00
65280;BME280;51878;55.748;48.742;2023-05-02T21:35:32;99432.13;;;10.33;100.00
65280;BME280;51878;55.748;48.742;2023-05-02T21:40:35;99422.38;;;10.24;100.00
65280;BME280;51878;55.748;48.742;2023-05-02T21:45:42;99440.91;;;10.36;100.00
65280;BME280;51878;55.748;48.742;2023-05-02T21:50:47;99423.56;;;10.30;100.00
65280;BME280;51878;55.748;48.742;2023-05-02T21:55:49;99367.50;;;10.07;100.00
65280;BME280;51878;55.748;48.742;2023-05-02T22:00:51;99338.19;;;9.96;100.00
65280;BME280;51878;55.748;48.742;2023-05-02T22:05:55;99412.94;;;10.20;100.00
65280;BME280;51878;55.748;48.742;2023-05-02T22:10:58;99379.47;;;9.98;100.00
65280;BME280;51878;55.748;48.742;2023-05-02T22:16:00;99400.03;;;10.22;100.00
65280;BME280;51878;55.748;48.742;2023-05-02T22:21:02;99375.84;;;10.06;100.00
65280;BME280;51878;55.748;48.742;2023-05-02T22:26:05;99287.41;;;9.45;100.00
65280;BME280;51878;55.748;48.742;2023-05-02T22:31:07;99405.53;;;10.14;100.00
65280;BME280;51878;55.748;48.742;2023-05-02T22:36:10;99367.78;;;9.98;100.00
65280;BME280;51878;55.748;48.742;2023-05-02T22:41:13;99372.09;;;10.07;100.00
65280;BME280;51878;55.748;48.742;2023-05-02T22:46:15;99377.72;;;10.20;100.00
65280;BME280;51878;55.748;48.742;2023-05-02T22:51:18;99376.97;;;10.26;100.00
65280;BME280;51878;55.748;48.742;2023-05-02T22:56:21;99274.00;;;9.67;100.00
65280;BME280;51878;55.748;48.742;2023-05-02T23:01:23;99245.19;;;9.59;100.00
65280;BME280;51878;55.748;48.742;2023-05-02T23:06:25;99322.88;;;10.18;100.00
65280;BME280;51878;55.748;48.742;2023-05-02T23:11:29;99346.97;;;10.13;100.00
65280;BME280;51878;55.748;48.742;2023-05-02T23:16:31;99339.97;;;10.04;100.00
65280;BME280;51878;55.748;48.742;2023-05-02T23:21:34;99355.75;;;10.15;100.00
65280;BME280;51878;55.748;48.742;2023-05-02T23:26:36;99330.59;;;9.77;100.00
65280;BME280;51878;55.748;48.742;2023-05-02T23:31:38;99406.41;;;10.14;100.00
65280;BME280;51878;55.748;48.742;2023-05-02T23:36:40;99403.22;;;10.11;100.00
65280;BME280;51878;55.748;48.742;2023-05-02T23:41:43;99374.91;;;10.13;100.00
65280;BME280;51878;55.748;48.742;2023-05-02T23:46:45;99364.16;;;10.20;100.00
65280;BME280;51878;55.748;48.742;2023-05-02T23:51:47;99411.50;;;10.32;100.00
65280;BME280;51878;55.748;48.742;2023-05-02T23:56:51;99358.06;;;9.88;100.00
